createdAt,value
2023-01-19T00:02:06.002Z,88.20
2023-01-19T00:05:10.515Z,87.56
2023-01-19T00:08:18.615Z,87.83
2023-01-19T00:11:23.479Z,87.87
2023-01-19T00:14:32.337Z,88.36
2023-01-19T00:17:36.609Z,88.24
2023-01-19T00:20:42.577Z,87.62
2023-01-19T00:23:53.660Z,87.94
2023-01-19T00:27:09.410Z,88.08
2023-01-19T00:30:19.626Z,87.70
2023-01-19T00:33:21.743Z,87.52
2023-01-19T00:36:27.688Z,87.16
2023-01-19T00:39:32.130Z,87.02
2023-01-19T00:42:46.063Z,86.68
2023-01-19T00:45:47.880Z,86.47
2023-01-19T00:48:49.599Z,86.80
2023-01-19T00:51:51.415Z,87.12
2023-01-19T00:54:53.212Z,87.00
2023-01-19T00:58:00.419Z,87.40
2023-01-19T01:01:04.931Z,86.89
2023-01-19T01:04:09.161Z,86.66
2023-01-19T01:07:11.003Z,86.38
2023-01-19T01:10:20.614Z,86.49
2023-01-19T01:13:23.619Z,86.89
2023-01-19T01:16:26.780Z,86.69
2023-01-19T01:19:28.827Z,86.82
2023-01-19T01:22:31.873Z,87.00
2023-01-19T01:25:41.666Z,86.52
2023-01-19T01:28:52.014Z,86.24
2023-01-19T01:31:58.845Z,86.45
2023-01-19T01:35:01.210Z,86.72
2023-01-19T01:38:19.362Z,86.18
2023-01-19T01:41:34.416Z,86.50
2023-01-19T01:45:00.064Z,86.00
2023-01-19T01:48:12.435Z,86.86
2023-01-19T01:51:30.418Z,86.60
2023-01-19T01:54:45.846Z,86.10
2023-01-19T01:57:54.081Z,85.87
2023-01-19T02:01:14.443Z,85.60
2023-01-19T02:04:19.052Z,86.01
2023-01-19T02:07:52.086Z,85.68
2023-01-19T02:11:14.436Z,85.63
2023-01-19T02:14:21.374Z,86.06
2023-01-19T02:17:33.837Z,86.05
2023-01-19T02:20:41.731Z,85.16
2023-01-19T02:24:05.637Z,85.38
2023-01-19T02:27:19.075Z,85.47
2023-01-19T02:30:21.442Z,85.78
2023-01-19T02:33:31.160Z,85.47
2023-01-19T02:37:15.526Z,85.89
2023-01-19T02:40:26.947Z,85.42
2023-01-19T02:43:35.798Z,85.68
2023-01-19T02:46:43.907Z,85.62
2023-01-19T02:50:02.870Z,85.61
2023-01-19T02:53:18.354Z,86.21
2023-01-19T02:56:57.646Z,85.38
2023-01-19T03:00:19.913Z,85.38
2023-01-19T03:03:40.151Z,84.93
2023-01-19T03:07:18.899Z,84.46
2023-01-19T03:11:02.758Z,84.89
2023-01-19T03:14:11.201Z,84.58
2023-01-19T03:17:20.964Z,84.93
2023-01-19T03:20:32.427Z,84.44
2023-01-19T03:23:38.929Z,84.96
2023-01-19T03:27:00.124Z,84.94
2023-01-19T03:30:12.424Z,84.52
2023-01-19T03:33:29.687Z,84.71
2023-01-19T03:36:38.309Z,83.64
2023-01-19T03:39:40.477Z,83.78
2023-01-19T03:42:47.783Z,83.54
2023-01-19T03:45:57.388Z,83.61
2023-01-19T03:49:02.361Z,83.54
2023-01-19T03:52:08.186Z,83.22
2023-01-19T03:55:12.417Z,83.18
2023-01-19T03:58:14.481Z,83.33
2023-01-19T04:01:21.316Z,83.74
2023-01-19T04:04:23.188Z,83.70
2023-01-19T04:07:25.125Z,83.72
2023-01-19T04:10:31.645Z,84.02
2023-01-19T04:13:39.146Z,83.50
2023-01-19T04:16:46.719Z,83.56
2023-01-19T04:19:54.575Z,84.14
2023-01-19T04:23:22.428Z,83.80
2023-01-19T04:26:32.249Z,84.12
2023-01-19T04:29:36.185Z,84.20
2023-01-19T04:32:37.933Z,84.16
2023-01-19T04:35:39.829Z,84.44
2023-01-19T04:38:41.759Z,84.17
2023-01-19T04:41:44.022Z,85.05
2023-01-19T04:44:46.048Z,84.82
2023-01-19T04:47:47.855Z,84.35
2023-01-19T04:50:51.468Z,84.84
2023-01-19T04:53:53.222Z,84.69
2023-01-19T04:56:55.136Z,84.61
2023-01-19T04:59:57.660Z,85.24
2023-01-19T05:03:00.001Z,85.23
2023-01-19T05:06:02.023Z,85.12
2023-01-19T05:09:04.504Z,84.93
2023-01-19T05:12:06.304Z,85.14
2023-01-19T05:15:09.663Z,85.58
2023-01-19T05:18:11.431Z,85.28
2023-01-19T05:21:13.178Z,85.82
2023-01-19T05:24:15.598Z,85.23
2023-01-19T05:27:17.447Z,85.50
2023-01-19T05:30:19.384Z,85.64
2023-01-19T05:33:22.160Z,85.28
2023-01-19T05:36:23.947Z,85.27
2023-01-19T05:39:26.819Z,85.59
2023-01-19T05:42:28.576Z,85.56
2023-01-19T05:45:30.639Z,85.12
2023-01-19T05:48:32.843Z,85.24
2023-01-19T05:51:38.494Z,85.28
2023-01-19T05:54:40.510Z,85.18
2023-01-19T05:57:43.262Z,84.88
2023-01-19T06:00:44.994Z,84.95
2023-01-19T06:03:48.824Z,85.17
2023-01-19T06:06:51.099Z,85.13
2023-01-19T06:09:52.900Z,84.94
2023-01-19T06:12:54.699Z,85.29
2023-01-19T06:15:58.634Z,85.01
2023-01-19T06:19:00.480Z,85.33
2023-01-19T06:22:03.014Z,85.54
2023-01-19T06:25:06.168Z,85.50
2023-01-19T06:28:07.921Z,85.56
2023-01-19T06:31:09.914Z,85.12
2023-01-19T06:34:12.179Z,85.59
2023-01-19T06:37:16.376Z,85.51
2023-01-19T06:40:20.423Z,85.26
2023-01-19T06:43:22.667Z,85.40
2023-01-19T06:46:24.977Z,85.46
2023-01-19T06:49:27.110Z,85.77
2023-01-19T06:52:29.474Z,85.54
2023-01-19T06:55:31.748Z,85.72
2023-01-19T06:58:35.141Z,85.66
2023-01-19T07:01:37.511Z,85.93
2023-01-19T07:04:39.796Z,86.04
2023-01-19T07:07:45.761Z,85.71
2023-01-19T07:11:26.013Z,85.86
2023-01-19T07:14:10.483Z,85.54
2023-01-19T07:17:13.098Z,85.92
2023-01-19T07:20:15.228Z,85.57
2023-01-19T07:23:17.718Z,85.59
2023-01-19T07:26:21.623Z,85.37
2023-01-19T07:29:23.824Z,85.52
2023-01-19T07:32:27.286Z,85.44
2023-01-19T07:35:30.306Z,85.14
2023-01-19T07:38:32.868Z,85.29
2023-01-19T07:41:35.134Z,85.01
2023-01-19T07:44:38.651Z,85.53
2023-01-19T07:47:42.657Z,85.25
2023-01-19T07:50:45.658Z,85.56
2023-01-19T07:53:51.399Z,85.62
2023-01-19T07:56:56.279Z,85.45
2023-01-19T07:59:58.505Z,85.74
2023-01-19T08:03:01.969Z,85.59
2023-01-19T08:06:05.317Z,85.88
2023-01-19T08:09:07.528Z,85.11
2023-01-19T08:12:09.353Z,85.43
2023-01-19T08:15:11.837Z,85.58
2023-01-19T08:18:15.727Z,85.59
2023-01-19T08:21:18.099Z,85.08
2023-01-19T08:24:23.211Z,84.98
2023-01-19T08:27:25.547Z,85.42
2023-01-19T08:30:27.894Z,85.16
2023-01-19T08:33:29.690Z,84.82
2023-01-19T08:36:32.358Z,85.15
2023-01-19T08:39:35.295Z,85.09
2023-01-19T08:42:37.701Z,84.96
2023-01-19T08:45:46.618Z,84.78
2023-01-19T08:48:49.450Z,85.14
2023-01-19T08:51:51.749Z,85.08
2023-01-19T08:54:53.564Z,85.03
2023-01-19T08:57:58.076Z,84.26
2023-01-19T09:01:01.508Z,84.32
2023-01-19T09:04:10.835Z,83.90
2023-01-19T09:07:13.353Z,84.05
2023-01-19T09:10:30.379Z,84.47
2023-01-19T09:13:33.101Z,84.12
2023-01-19T09:16:35.685Z,83.63
2023-01-19T09:19:45.573Z,83.15
2023-01-19T09:22:49.141Z,83.03
2023-01-19T09:25:57.567Z,83.02
2023-01-19T09:29:14.311Z,82.93
2023-01-19T09:32:20.549Z,82.71
2023-01-19T09:35:26.317Z,83.06
2023-01-19T09:38:32.099Z,82.66
2023-01-19T09:41:43.194Z,82.17
2023-01-19T09:48:22.754Z,81.58
2023-01-19T09:51:39.536Z,81.35
2023-01-19T09:54:52.815Z,80.96
2023-01-19T09:58:01.493Z,81.19
2023-01-19T10:01:20.515Z,81.02
2023-01-19T10:04:40.217Z,81.07
2023-01-19T10:07:54.753Z,80.06
2023-01-19T10:10:58.299Z,79.73
2023-01-19T10:14:00.112Z,79.56
2023-01-19T10:17:42.279Z,79.05
2023-01-19T10:20:51.539Z,78.09
2023-01-19T10:24:06.576Z,78.03
2023-01-19T10:27:19.279Z,78.11
2023-01-19T10:30:28.485Z,77.59
2023-01-19T10:33:31.982Z,77.23
2023-01-19T10:36:44.484Z,76.36
2023-01-19T10:39:54.611Z,76.22
2023-01-19T10:42:57.922Z,75.66
2023-01-19T10:46:00.194Z,75.05
2023-01-19T10:49:02.399Z,74.68
2023-01-19T10:52:08.042Z,74.24
2023-01-19T10:55:25.508Z,73.26
2023-01-19T10:58:31.024Z,72.78
2023-01-19T11:01:38.268Z,72.91
2023-01-19T11:04:42.193Z,72.70
2023-01-19T11:07:44.459Z,73.00
2023-01-19T11:10:56.388Z,73.29
2023-01-19T11:14:26.048Z,72.94
2023-01-19T11:17:28.786Z,72.69
2023-01-19T11:20:50.416Z,71.92
2023-01-19T11:23:55.466Z,72.27
2023-01-19T11:27:03.723Z,71.45
2023-01-19T11:30:24.745Z,71.51
2023-01-19T11:33:34.449Z,71.14
2023-01-19T11:36:36.979Z,70.92
2023-01-19T11:40:00.581Z,70.34
2023-01-19T11:43:02.724Z,70.33
2023-01-19T11:46:05.332Z,69.91
2023-01-19T11:49:20.047Z,68.62
2023-01-19T11:52:28.902Z,69.10
2023-01-19T11:55:34.266Z,69.44
2023-01-19T11:58:48.085Z,69.36
2023-01-19T12:01:57.541Z,69.41
2023-01-19T12:05:05.322Z,68.61
2023-01-19T12:08:17.241Z,68.38
2023-01-19T12:11:26.999Z,68.33
2023-01-19T12:14:39.163Z,67.42
2023-01-19T12:17:48.926Z,66.29
2023-01-19T12:20:54.290Z,64.89
2023-01-19T12:24:26.262Z,65.09
2023-01-19T12:27:43.471Z,65.84
2023-01-19T12:30:45.836Z,65.39
2023-01-19T12:33:48.112Z,65.58
2023-01-19T12:36:50.916Z,65.13
2023-01-19T12:39:53.998Z,66.83
2023-01-19T12:42:56.401Z,66.14
2023-01-19T12:45:58.472Z,66.06
2023-01-19T12:49:05.335Z,65.41
2023-01-19T12:52:19.094Z,65.22
2023-01-19T12:55:35.075Z,65.73
2023-01-19T12:58:36.826Z,65.43
2023-01-19T13:01:38.792Z,65.33
2023-01-19T13:04:40.840Z,65.14
2023-01-19T13:08:08.415Z,64.51
2023-01-19T13:11:17.137Z,64.51
2023-01-19T13:14:38.335Z,64.79
2023-01-19T13:17:54.664Z,64.36
2023-01-19T13:21:08.245Z,64.17
2023-01-19T13:24:12.957Z,63.95
2023-01-19T13:27:15.205Z,64.33
2023-01-19T13:30:20.210Z,65.21
2023-01-19T13:33:25.485Z,64.77
2023-01-19T13:36:31.437Z,65.14
2023-01-19T13:39:44.206Z,65.33
2023-01-19T13:42:48.206Z,65.15
2023-01-19T13:45:53.481Z,64.49
2023-01-19T13:49:04.852Z,65.51
2023-01-19T13:52:23.365Z,66.40
2023-01-19T13:55:28.637Z,66.21
2023-01-19T13:58:32.068Z,65.98
2023-01-19T14:01:34.609Z,65.94
2023-01-19T14:04:37.304Z,66.25
2023-01-19T14:07:39.574Z,65.60
2023-01-19T14:10:54.738Z,66.10
2023-01-19T14:13:56.576Z,65.85
2023-01-19T14:16:59.689Z,66.68
2023-01-19T14:20:01.808Z,66.57
2023-01-19T14:23:05.717Z,67.00
2023-01-19T14:26:38.776Z,67.47
2023-01-19T14:29:40.766Z,67.88
2023-01-19T14:32:47.678Z,68.12
2023-01-19T14:35:49.581Z,67.91
2023-01-19T14:38:52.967Z,68.36
2023-01-19T14:41:58.000Z,68.16
2023-01-19T14:45:03.081Z,68.03
2023-01-19T14:48:21.913Z,67.89
2023-01-19T14:51:26.223Z,67.34
2023-01-19T14:54:36.091Z,66.94
2023-01-19T14:57:38.373Z,66.72
2023-01-19T15:00:41.517Z,66.98
2023-01-19T15:03:45.628Z,66.43
2023-01-19T15:06:48.691Z,66.66
2023-01-19T15:09:51.906Z,67.44
2023-01-19T15:12:55.143Z,67.84
2023-01-19T15:15:59.005Z,67.69
2023-01-19T15:19:00.826Z,68.69
2023-01-19T15:22:02.696Z,68.71
2023-01-19T15:25:04.756Z,68.97
2023-01-19T15:28:12.272Z,69.22
2023-01-19T15:31:17.083Z,69.62
2023-01-19T15:34:19.055Z,69.42
2023-01-19T15:37:20.821Z,69.13
2023-01-19T15:40:23.384Z,69.84
2023-01-19T15:43:25.146Z,69.13
2023-01-19T15:46:26.922Z,69.44
2023-01-19T15:49:30.880Z,69.34
2023-01-19T15:52:32.507Z,69.89
2023-01-19T15:55:34.158Z,69.97
2023-01-19T15:58:35.920Z,70.14
2023-01-19T16:01:37.713Z,70.29
2023-01-19T16:04:39.485Z,70.37
2023-01-19T16:07:41.298Z,71.17
2023-01-19T16:10:43.285Z,71.08
2023-01-19T16:13:46.357Z,71.18
2023-01-19T16:16:48.339Z,71.78
2023-01-19T16:19:49.987Z,71.82
2023-01-19T16:22:51.820Z,71.90
2023-01-19T16:26:08.145Z,72.50
2023-01-19T16:29:10.983Z,72.20
2023-01-19T16:32:12.798Z,72.72
2023-01-19T16:35:15.786Z,73.21
2023-01-19T16:38:17.652Z,73.79
2023-01-19T16:41:20.072Z,73.42
2023-01-19T16:44:21.983Z,73.64
2023-01-19T16:47:24.397Z,73.38
2023-01-19T16:50:26.349Z,73.70
2023-01-19T16:53:29.731Z,73.71
2023-01-19T16:56:32.048Z,73.82
2023-01-19T16:59:33.994Z,74.08
2023-01-19T17:02:35.870Z,73.60
2023-01-19T17:05:39.140Z,73.67
2023-01-19T17:08:41.607Z,73.88
2023-01-19T17:11:43.891Z,73.70
2023-01-19T17:14:47.572Z,73.78
2023-01-19T17:17:49.477Z,73.15
2023-01-19T17:20:51.419Z,74.11
2023-01-19T17:23:54.855Z,73.80
2023-01-19T17:26:56.530Z,73.49
2023-01-19T17:29:58.261Z,73.41
2023-01-19T17:33:01.461Z,73.88
2023-01-19T17:36:12.835Z,73.57
2023-01-19T17:39:15.020Z,73.76
2023-01-19T17:42:16.876Z,73.68
2023-01-19T17:45:18.719Z,73.63
2023-01-19T17:48:46.713Z,73.29
2023-01-19T17:51:55.812Z,73.38
2023-01-19T17:54:57.927Z,73.19
2023-01-19T17:58:00.409Z,73.09
2023-01-19T18:01:31.864Z,73.69
2023-01-19T18:04:33.805Z,72.80
2023-01-19T18:07:35.671Z,73.11
2023-01-19T18:10:38.164Z,73.22
2023-01-19T18:13:42.893Z,73.80
2023-01-19T18:16:44.782Z,73.76
2023-01-19T18:19:46.825Z,73.89
2023-01-19T18:22:48.613Z,73.93
2023-01-19T18:25:50.657Z,73.76
2023-01-19T18:28:56.315Z,73.83
2023-01-19T18:31:58.171Z,74.07
2023-01-19T18:35:00.055Z,74.30
2023-01-19T18:38:01.832Z,74.60
2023-01-19T18:41:04.825Z,74.01
2023-01-19T18:44:06.536Z,73.87
2023-01-19T18:47:08.418Z,73.69
2023-01-19T18:50:11.091Z,74.27
2023-01-19T18:53:13.765Z,74.14
2023-01-19T18:56:16.576Z,74.26
2023-01-19T18:59:18.517Z,74.42
2023-01-19T19:02:20.443Z,74.45
2023-01-19T19:05:22.264Z,73.72
2023-01-19T19:08:24.293Z,73.82
2023-01-19T19:11:26.880Z,74.32
2023-01-19T19:14:28.769Z,74.49
2023-01-19T19:17:30.530Z,74.43
2023-01-19T19:20:32.326Z,74.68
2023-01-19T19:23:34.880Z,75.35
2023-01-19T19:26:36.753Z,75.03
2023-01-19T19:29:38.506Z,75.42
2023-01-19T19:32:40.294Z,76.19
2023-01-19T19:35:42.155Z,75.91
2023-01-19T19:38:44.905Z,76.12
2023-01-19T19:41:46.869Z,75.96
2023-01-19T19:44:48.730Z,76.00
2023-01-19T19:47:51.003Z,76.54
2023-01-19T19:50:53.200Z,75.92
2023-01-19T19:53:57.237Z,75.99
2023-01-19T19:56:59.072Z,76.22
2023-01-19T20:00:00.965Z,76.92
2023-01-19T20:03:02.712Z,76.58
2023-01-19T20:06:13.990Z,76.60
2023-01-19T20:09:16.764Z,76.75
2023-01-19T20:12:18.736Z,76.26
2023-01-19T20:15:20.593Z,76.38
2023-01-19T20:18:28.494Z,76.22
2023-01-19T20:21:32.904Z,75.96
2023-01-19T20:24:34.687Z,76.03
2023-01-19T20:27:36.426Z,75.95
2023-01-19T20:30:38.188Z,76.02
2023-01-19T20:33:42.035Z,76.53
2023-01-19T20:36:46.891Z,75.90
2023-01-19T20:39:49.023Z,75.74
2023-01-19T20:42:50.730Z,76.33
2023-01-19T20:45:52.889Z,76.23
2023-01-19T20:48:54.853Z,75.93
2023-01-19T20:51:56.916Z,76.27
2023-01-19T20:54:58.704Z,76.03
2023-01-19T20:58:00.394Z,76.07
2023-01-19T21:01:10.445Z,76.06
2023-01-19T21:04:12.824Z,75.88
2023-01-19T21:07:14.710Z,75.92
2023-01-19T21:10:19.546Z,75.82
2023-01-19T21:13:21.382Z,75.94
2023-01-19T21:16:24.937Z,75.97
2023-01-19T21:19:26.753Z,76.07
2023-01-19T21:22:28.428Z,76.02
2023-01-19T21:25:30.175Z,75.78
2023-01-19T21:28:31.893Z,75.82
2023-01-19T21:31:33.765Z,75.82
2023-01-19T21:34:35.666Z,76.11
2023-01-19T21:37:37.442Z,75.91
2023-01-19T21:40:39.204Z,76.16
2023-01-19T21:43:42.633Z,75.76
2023-01-19T21:46:44.353Z,75.68
2023-01-19T21:49:46.048Z,75.77
2023-01-19T21:52:47.770Z,76.50
2023-01-19T21:55:49.572Z,76.13
2023-01-19T21:58:51.355Z,76.45
2023-01-19T22:01:53.289Z,76.90
2023-01-19T22:04:55.188Z,76.46
2023-01-19T22:07:56.884Z,76.06
2023-01-19T22:11:05.939Z,76.29
2023-01-19T22:14:07.807Z,76.51
2023-01-19T22:17:09.605Z,76.77
2023-01-19T22:20:11.654Z,76.97
2023-01-19T22:23:13.541Z,76.85
2023-01-19T22:26:15.864Z,76.88
2023-01-19T22:29:17.771Z,76.71
2023-01-19T22:32:19.598Z,76.93
2023-01-19T22:35:21.599Z,76.81
2023-01-19T22:38:23.274Z,77.16
2023-01-19T22:41:30.546Z,76.69
2023-01-19T22:44:32.259Z,77.21
2023-01-19T22:47:33.979Z,77.28
2023-01-19T22:50:35.694Z,77.13
2023-01-19T22:53:37.398Z,77.46
2023-01-19T22:56:40.978Z,77.73
2023-01-19T22:59:43.662Z,77.86
2023-01-19T23:02:45.520Z,78.01
2023-01-19T23:05:47.348Z,77.75
2023-01-19T23:08:49.418Z,77.88
2023-01-19T23:11:51.428Z,77.64
2023-01-19T23:14:53.072Z,78.10
2023-01-19T23:17:54.824Z,78.03
2023-01-19T23:20:56.523Z,77.73
2023-01-19T23:24:02.993Z,77.43
2023-01-19T23:27:04.724Z,77.62
2023-01-19T23:30:08.020Z,78.10
2023-01-19T23:33:09.722Z,77.60
2023-01-19T23:36:12.158Z,77.51
2023-01-19T23:39:16.904Z,77.17
2023-01-19T23:42:18.593Z,77.38
2023-01-19T23:45:20.385Z,77.75
2023-01-19T23:48:22.121Z,77.73
2023-01-19T23:51:26.904Z,77.65
2023-01-19T23:54:28.845Z,77.85
2023-01-19T23:57:30.632Z,78.00
